createdAt,value
2023-04-07T00:00:17.002Z,10.15
2023-04-07T00:01:49.125Z,8.77
2023-04-07T00:03:23.175Z,9.25
2023-04-07T00:04:56.987Z,9.32
2023-04-07T00:08:01.700Z,8.57
2023-04-07T00:09:34.454Z,9.00
2023-04-07T00:11:06.898Z,8.57
2023-04-07T00:12:42.092Z,9.25
2023-04-07T00:14:14.263Z,8.82
2023-04-07T00:15:46.393Z,9.52
2023-04-07T00:17:18.548Z,8.60
2023-04-07T00:18:50.535Z,8.30
2023-04-07T00:20:22.863Z,9.07
2023-04-07T00:21:54.939Z,9.30
2023-04-07T00:23:27.706Z,8.57
2023-04-07T00:24:59.799Z,8.40
2023-04-07T00:26:33.444Z,8.13
2023-04-07T00:29:37.562Z,8.77
2023-04-07T00:31:09.726Z,8.40
2023-04-07T00:32:41.880Z,8.68
2023-04-07T00:34:14.009Z,8.38
2023-04-07T00:35:47.046Z,8.93
2023-04-07T00:37:19.722Z,7.90
2023-04-07T00:38:51.874Z,9.20
2023-04-07T00:40:24.312Z,8.80
2023-04-07T00:41:56.876Z,8.63
2023-04-07T00:43:29.003Z,8.27
2023-04-07T00:45:01.228Z,8.60
2023-04-07T00:46:33.903Z,12.43
2023-04-07T00:48:08.823Z,8.57
2023-04-07T00:49:40.968Z,9.38
2023-04-07T00:51:13.702Z,9.60
2023-04-07T00:52:46.499Z,10.70
2023-04-07T00:54:21.854Z,8.50
2023-04-07T00:55:53.954Z,11.90
2023-04-07T00:57:26.325Z,11.20
2023-04-07T00:58:58.450Z,12.60
2023-04-07T01:00:36.828Z,10.18
2023-04-07T01:02:15.106Z,9.02
2023-04-07T01:03:54.634Z,9.77
2023-04-07T01:05:53.283Z,9.25
2023-04-07T01:07:29.677Z,10.15
2023-04-07T01:10:38.772Z,12.10
2023-04-07T01:12:18.898Z,11.65
2023-04-07T01:13:52.055Z,10.13
2023-04-07T01:15:25.969Z,11.68
2023-04-07T01:16:59.038Z,11.48
2023-04-07T01:18:36.138Z,11.23
2023-04-07T01:20:08.892Z,11.25
2023-04-07T01:21:44.639Z,12.50
2023-04-07T01:23:24.176Z,12.27
2023-04-07T01:25:21.495Z,10.93
2023-04-07T01:27:00.433Z,11.48
2023-04-07T01:28:55.511Z,10.73
2023-04-07T01:30:33.918Z,10.48
2023-04-07T01:32:08.696Z,10.95
2023-04-07T01:33:46.520Z,11.00
2023-04-07T01:35:19.201Z,9.98
2023-04-07T01:36:51.844Z,10.10
2023-04-07T01:38:24.650Z,11.02
2023-04-07T01:39:56.725Z,10.10
2023-04-07T01:41:29.094Z,9.68
2023-04-07T01:43:02.117Z,10.80
2023-04-07T01:44:34.413Z,11.07
2023-04-07T01:46:06.680Z,11.27
2023-04-07T01:47:39.543Z,10.52
2023-04-07T01:49:12.394Z,10.40
2023-04-07T01:50:45.503Z,9.75
2023-04-07T01:52:17.882Z,9.75
2023-04-07T01:53:50.389Z,9.65
2023-04-07T01:55:22.824Z,9.48
2023-04-07T01:56:55.016Z,9.60
2023-04-07T01:58:27.690Z,9.40
2023-04-07T02:00:00.246Z,10.00
2023-04-07T02:01:32.589Z,10.40
2023-04-07T02:03:21.710Z,9.57
2023-04-07T02:04:58.830Z,9.52
2023-04-07T02:06:36.913Z,9.93
2023-04-07T02:08:09.464Z,10.27
2023-04-07T02:09:43.123Z,10.27
2023-04-07T02:11:17.187Z,9.55
2023-04-07T02:12:50.066Z,9.48
2023-04-07T02:14:24.717Z,10.45
2023-04-07T02:15:57.583Z,9.45
2023-04-07T02:17:30.538Z,9.95
2023-04-07T02:19:03.939Z,9.35
2023-04-07T02:20:36.181Z,9.80
2023-04-07T02:22:08.793Z,10.27
2023-04-07T02:23:41.029Z,10.13
2023-04-07T02:25:25.003Z,9.35
2023-04-07T02:26:58.096Z,9.55
2023-04-07T02:28:30.318Z,10.38
2023-04-07T02:30:02.395Z,9.48
2023-04-07T02:31:34.514Z,9.57
2023-04-07T02:33:06.654Z,10.32
2023-04-07T02:34:38.818Z,9.75
2023-04-07T02:36:11.080Z,11.15
2023-04-07T02:37:44.010Z,10.18
2023-04-07T02:39:16.385Z,10.23
2023-04-07T02:40:51.688Z,9.82
2023-04-07T02:42:36.759Z,10.98
2023-04-07T02:44:08.917Z,9.88
2023-04-07T02:45:41.020Z,10.23
2023-04-07T02:47:13.518Z,10.07
2023-04-07T02:48:45.586Z,11.45
2023-04-07T02:50:17.758Z,10.52
2023-04-07T02:51:49.893Z,9.82
2023-04-07T02:53:22.272Z,10.10
2023-04-07T02:54:54.314Z,10.68
2023-04-07T02:56:26.494Z,10.35
2023-04-07T02:57:58.696Z,11.00
2023-04-07T02:59:30.832Z,10.60
2023-04-07T03:01:03.013Z,11.02
2023-04-07T03:02:35.272Z,10.40
2023-04-07T03:04:07.734Z,11.05
2023-04-07T03:05:40.085Z,10.07
2023-04-07T03:07:12.172Z,10.05
2023-04-07T03:08:44.763Z,10.70
2023-04-07T03:10:16.956Z,10.00
2023-04-07T03:11:49.228Z,11.10
2023-04-07T03:13:21.770Z,10.95
2023-04-07T03:14:53.926Z,10.65
2023-04-07T03:16:26.000Z,10.65
2023-04-07T03:17:58.139Z,9.65
2023-04-07T03:19:30.487Z,10.13
2023-04-07T03:21:02.725Z,9.73
2023-04-07T03:22:34.901Z,10.20
2023-04-07T03:24:07.852Z,10.38
2023-04-07T03:25:40.000Z,10.10
2023-04-07T03:27:12.136Z,9.45
2023-04-07T03:28:44.250Z,9.90
2023-04-07T03:30:16.662Z,9.35
2023-04-07T03:31:48.985Z,10.00
2023-04-07T03:33:21.501Z,10.80
2023-04-07T03:34:53.676Z,9.93
2023-04-07T03:36:25.888Z,12.80
2023-04-07T03:37:58.003Z,13.15
2023-04-07T03:39:30.228Z,10.70
2023-04-07T03:41:02.376Z,10.50
2023-04-07T03:42:34.604Z,11.05
2023-04-07T03:44:07.448Z,10.80
2023-04-07T03:45:39.618Z,10.63
2023-04-07T03:47:12.304Z,10.60
2023-04-07T03:48:44.431Z,12.20
2023-04-07T03:50:16.684Z,10.40
2023-04-07T03:51:49.040Z,10.25
2023-04-07T03:53:21.414Z,11.10
2023-04-07T03:54:53.516Z,12.45
2023-04-07T03:56:27.932Z,11.48
2023-04-07T03:58:01.096Z,11.10
2023-04-07T03:59:33.459Z,13.32
2023-04-07T04:01:05.655Z,13.77
2023-04-07T04:02:37.916Z,13.75
2023-04-07T04:04:10.273Z,16.60
2023-04-07T04:05:42.659Z,15.95
2023-04-07T04:07:14.762Z,13.70
2023-04-07T04:08:46.945Z,15.07
2023-04-07T04:10:19.982Z,14.55
2023-04-07T04:11:52.299Z,16.80
2023-04-07T04:13:24.425Z,17.35
2023-04-07T04:14:56.603Z,15.00
2023-04-07T04:16:28.894Z,14.23
2023-04-07T04:18:01.132Z,14.80
2023-04-07T04:19:33.402Z,15.95
2023-04-07T04:21:05.590Z,17.50
2023-04-07T04:22:37.859Z,19.73
2023-04-07T04:24:09.964Z,20.83
2023-04-07T04:25:42.240Z,22.75
2023-04-07T04:28:46.300Z,21.65
2023-04-07T04:30:18.910Z,20.35
2023-04-07T04:31:51.080Z,17.20
2023-04-07T04:33:23.249Z,15.23
2023-04-07T04:34:55.450Z,15.63
2023-04-07T04:36:27.873Z,15.70
2023-04-07T04:38:00.022Z,19.40
2023-04-07T04:39:32.292Z,22.15
2023-04-07T04:41:04.504Z,20.75
2023-04-07T04:42:36.825Z,24.08
2023-04-07T04:44:09.178Z,24.27
2023-04-07T04:45:41.412Z,26.38
2023-04-07T04:47:13.582Z,21.58
2023-04-07T04:48:45.807Z,22.48
2023-04-07T04:50:18.011Z,26.30
2023-04-07T04:51:50.363Z,25.73
2023-04-07T04:53:22.697Z,24.25
2023-04-07T04:54:55.435Z,23.58
2023-04-07T04:56:27.574Z,22.83
2023-04-07T04:57:59.693Z,22.80
2023-04-07T04:59:31.902Z,20.95
2023-04-07T05:01:04.080Z,22.08
2023-04-07T05:02:37.490Z,22.65
2023-04-07T05:04:10.823Z,26.48
2023-04-07T05:07:15.360Z,26.83
2023-04-07T05:08:47.610Z,27.50
2023-04-07T05:10:19.804Z,27.80
2023-04-07T05:11:52.056Z,29.17
2023-04-07T05:13:24.589Z,26.65
2023-04-07T05:14:57.141Z,26.73
2023-04-07T05:16:29.294Z,26.38
2023-04-07T05:18:01.526Z,27.63
2023-04-07T05:19:34.026Z,23.73
2023-04-07T05:21:06.229Z,26.02
2023-04-07T05:22:38.397Z,25.27
2023-04-07T05:24:10.488Z,22.50
2023-04-07T05:25:42.649Z,20.42
2023-04-07T05:27:14.837Z,19.58
2023-04-07T05:28:47.175Z,20.98
2023-04-07T05:30:19.514Z,20.83
2023-04-07T05:31:54.795Z,21.08
2023-04-07T05:33:26.984Z,20.90
2023-04-07T05:34:59.217Z,20.60
2023-04-07T05:36:32.189Z,21.05
2023-04-07T05:38:04.416Z,19.13
2023-04-07T05:39:36.719Z,16.17
2023-04-07T05:41:08.902Z,12.93
2023-04-07T05:42:41.123Z,12.93
2023-04-07T05:44:13.230Z,13.13
2023-04-07T05:45:45.344Z,11.95
2023-04-07T05:47:17.603Z,12.18
2023-04-07T05:48:49.833Z,11.23
2023-04-07T05:50:21.954Z,11.02
2023-04-07T05:51:54.085Z,11.23
2023-04-07T05:53:26.424Z,10.65
2023-04-07T05:54:58.481Z,11.10
2023-04-07T05:56:30.709Z,10.43
2023-04-07T05:58:02.874Z,9.80
2023-04-07T05:59:35.547Z,10.05
2023-04-07T06:01:07.700Z,11.18
2023-04-07T06:02:40.639Z,10.93
2023-04-07T06:04:12.865Z,11.18
2023-04-07T06:05:47.301Z,9.52
2023-04-07T06:07:19.463Z,10.77
2023-04-07T06:08:51.754Z,10.55
2023-04-07T06:10:23.912Z,12.52
2023-04-07T06:11:57.223Z,12.63
2023-04-07T06:13:29.464Z,10.50
2023-04-07T06:15:01.857Z,10.80
2023-04-07T06:16:34.117Z,9.40
2023-04-07T06:18:06.344Z,8.40
2023-04-07T06:19:38.551Z,8.38
2023-04-07T06:21:10.679Z,8.50
2023-04-07T06:22:42.823Z,14.45
2023-04-07T06:24:15.048Z,10.02
2023-04-07T06:25:48.422Z,7.28
2023-04-07T06:27:21.998Z,8.70
2023-04-07T06:30:26.361Z,7.63
2023-04-07T06:31:58.840Z,6.90
2023-04-07T06:33:31.013Z,7.53
2023-04-07T06:35:03.875Z,7.55
2023-04-07T06:36:36.076Z,8.43
2023-04-07T06:38:08.599Z,7.97
2023-04-07T06:39:40.896Z,9.00
2023-04-07T06:41:17.372Z,7.55
2023-04-07T06:42:49.663Z,7.47
2023-04-07T06:44:21.838Z,7.10
2023-04-07T06:45:54.031Z,6.93
2023-04-07T06:47:26.230Z,7.25
2023-04-07T06:49:01.311Z,7.47
2023-04-07T06:50:33.502Z,7.38
2023-04-07T06:52:06.392Z,7.13
2023-04-07T06:53:38.580Z,7.03
2023-04-07T06:55:10.932Z,6.90
2023-04-07T06:56:43.945Z,6.90
2023-04-07T06:58:16.126Z,7.18
2023-04-07T06:59:48.428Z,6.63
2023-04-07T07:01:20.694Z,6.53
2023-04-07T07:02:52.973Z,7.07
2023-04-07T07:04:25.417Z,7.68
2023-04-07T07:06:00.348Z,7.15
2023-04-07T07:07:32.411Z,7.32
2023-04-07T07:09:04.639Z,8.00
2023-04-07T07:10:36.911Z,7.05
2023-04-07T07:12:09.055Z,7.30
2023-04-07T07:13:41.371Z,7.35
2023-04-07T07:15:13.456Z,7.65
2023-04-07T07:16:45.552Z,8.82
2023-04-07T07:18:18.486Z,9.68
2023-04-07T07:19:51.157Z,7.47
2023-04-07T07:21:23.232Z,7.50
2023-04-07T07:22:55.522Z,7.57
2023-04-07T07:24:29.627Z,7.88
2023-04-07T07:26:01.722Z,7.13
2023-04-07T07:27:33.916Z,8.25
2023-04-07T07:29:06.004Z,7.93
2023-04-07T07:30:40.776Z,7.63
2023-04-07T07:32:12.857Z,6.70
2023-04-07T07:33:46.799Z,7.63
2023-04-07T07:35:19.051Z,6.80
2023-04-07T07:36:51.487Z,8.55
2023-04-07T07:38:23.610Z,8.23
2023-04-07T07:39:56.701Z,8.60
2023-04-07T07:41:28.843Z,7.28
2023-04-07T07:43:01.880Z,7.15
2023-04-07T07:44:34.022Z,7.50
2023-04-07T07:46:06.215Z,7.50
2023-04-07T07:47:38.406Z,7.55
2023-04-07T07:49:10.513Z,7.65
2023-04-07T07:50:43.784Z,7.53
2023-04-07T07:52:16.010Z,7.35
2023-04-07T07:53:48.370Z,7.90
2023-04-07T07:55:21.150Z,7.03
2023-04-07T07:56:53.390Z,7.85
2023-04-07T07:58:25.930Z,6.68
2023-04-07T07:59:58.482Z,6.43
2023-04-07T08:01:31.545Z,7.15
2023-04-07T08:03:03.840Z,7.40
2023-04-07T08:04:37.159Z,7.57
2023-04-07T08:06:09.994Z,7.32
2023-04-07T08:07:43.600Z,8.32
2023-04-07T08:09:16.185Z,8.32
2023-04-07T08:10:49.249Z,7.83
2023-04-07T08:12:21.971Z,8.52
2023-04-07T08:13:54.681Z,9.82
2023-04-07T08:15:27.030Z,7.55
2023-04-07T08:16:59.225Z,6.68
2023-04-07T08:18:31.547Z,7.50
2023-04-07T08:20:04.698Z,7.47
2023-04-07T08:21:36.810Z,8.50
2023-04-07T08:23:09.002Z,8.73
2023-04-07T08:24:42.069Z,7.45
2023-04-07T08:26:14.226Z,7.47
2023-04-07T08:27:46.354Z,8.30
2023-04-07T08:29:18.465Z,7.47
2023-04-07T08:30:50.662Z,9.02
2023-04-07T08:32:22.775Z,11.18
2023-04-07T08:35:32.530Z,9.30
2023-04-07T08:37:04.644Z,7.35
2023-04-07T08:38:36.928Z,7.15
2023-04-07T08:40:09.804Z,11.82
2023-04-07T08:41:43.002Z,9.05
2023-04-07T08:43:15.226Z,8.45
2023-04-07T08:44:48.761Z,8.50
2023-04-07T08:46:24.155Z,8.18
2023-04-07T08:47:59.781Z,9.70
2023-04-07T08:49:33.189Z,7.10
2023-04-07T08:51:08.916Z,6.35
2023-04-07T08:52:57.894Z,6.75
2023-04-07T08:54:30.173Z,9.80
2023-04-07T08:56:02.669Z,8.45
2023-04-07T08:57:35.433Z,8.77
2023-04-07T08:59:18.934Z,10.32
2023-04-07T09:00:51.416Z,10.80
2023-04-07T09:02:24.281Z,9.15
2023-04-07T09:03:57.936Z,8.30
2023-04-07T09:07:02.526Z,9.93
2023-04-07T09:10:13.400Z,10.07
2023-04-07T09:11:45.740Z,8.10
2023-04-07T09:13:17.846Z,8.15
2023-04-07T09:14:49.940Z,9.65
2023-04-07T09:16:22.764Z,8.02
2023-04-07T09:17:55.064Z,7.82
2023-04-07T09:19:27.958Z,8.50
2023-04-07T09:21:05.501Z,7.90
2023-04-07T09:22:43.025Z,7.85
2023-04-07T09:24:26.405Z,9.50
2023-04-07T09:26:02.273Z,7.28
2023-04-07T09:27:34.567Z,8.52
2023-04-07T09:29:07.795Z,8.32
2023-04-07T09:30:53.557Z,8.63
2023-04-07T09:32:44.582Z,7.32
2023-04-07T09:34:40.368Z,7.50
2023-04-07T09:36:13.144Z,8.50
2023-04-07T09:37:47.893Z,7.25
2023-04-07T09:39:20.899Z,7.32
2023-04-07T09:41:06.404Z,7.90
2023-04-07T09:42:48.722Z,8.02
2023-04-07T09:44:22.101Z,8.57
2023-04-07T09:46:11.768Z,8.70
2023-04-07T09:47:44.708Z,7.97
2023-04-07T09:49:17.167Z,8.50
2023-04-07T09:50:52.651Z,8.85
2023-04-07T09:52:47.733Z,7.95
2023-04-07T09:54:36.362Z,8.32
2023-04-07T09:56:12.722Z,8.60
2023-04-07T09:57:44.998Z,8.45
2023-04-07T09:59:20.277Z,7.55
2023-04-07T10:00:52.560Z,8.20
2023-04-07T10:02:27.260Z,10.15
2023-04-07T10:03:59.683Z,10.43
2023-04-07T10:05:33.752Z,8.15
2023-04-07T10:07:06.109Z,8.43
2023-04-07T10:08:40.262Z,6.80
2023-04-07T10:10:12.434Z,6.35
2023-04-07T10:11:45.040Z,6.53
2023-04-07T10:13:17.306Z,7.00
2023-04-07T10:14:49.452Z,9.98
2023-04-07T10:16:23.379Z,7.13
2023-04-07T10:17:57.342Z,6.97
2023-04-07T10:19:35.356Z,8.52
2023-04-07T10:21:08.562Z,8.70
2023-04-07T10:22:42.178Z,11.18
2023-04-07T10:24:33.064Z,7.50
2023-04-07T10:26:06.246Z,7.68
2023-04-07T10:27:50.997Z,7.88
2023-04-07T10:29:24.624Z,7.47
2023-04-07T10:30:57.559Z,7.90
2023-04-07T10:32:29.732Z,8.70
2023-04-07T10:34:03.157Z,7.47
2023-04-07T10:37:26.717Z,9.00
2023-04-07T10:39:07.991Z,8.38
2023-04-07T10:40:41.653Z,9.07
2023-04-07T10:42:38.436Z,8.75
2023-04-07T10:44:12.215Z,8.90
2023-04-07T10:45:50.271Z,9.32
2023-04-07T10:47:22.475Z,6.03
2023-04-07T10:49:10.663Z,8.05
2023-04-07T10:50:43.132Z,7.47
2023-04-07T10:52:15.464Z,6.78
2023-04-07T10:54:23.377Z,7.38
2023-04-07T10:55:57.082Z,7.32
2023-04-07T10:57:29.571Z,6.68
2023-04-07T10:59:17.722Z,7.82
2023-04-07T11:01:08.065Z,7.40
2023-04-07T11:02:40.994Z,7.90
2023-04-07T11:04:13.741Z,7.78
2023-04-07T11:05:45.970Z,6.60
2023-04-07T11:07:44.439Z,7.13
2023-04-07T11:09:22.021Z,7.38
2023-04-07T11:10:54.106Z,7.57
2023-04-07T11:12:27.226Z,7.22
2023-04-07T11:13:59.299Z,6.50
2023-04-07T11:15:32.036Z,6.45
2023-04-07T11:17:04.977Z,6.30
2023-04-07T11:18:37.878Z,6.80
2023-04-07T11:20:10.496Z,6.65
2023-04-07T11:21:42.691Z,6.80
2023-04-07T11:24:55.777Z,6.93
2023-04-07T11:26:28.380Z,7.82
2023-04-07T11:28:01.177Z,7.28
2023-04-07T11:29:34.617Z,7.20
2023-04-07T11:31:06.857Z,8.30
2023-04-07T11:32:39.685Z,7.75
2023-04-07T11:34:12.440Z,6.13
2023-04-07T11:35:56.102Z,6.57
2023-04-07T11:37:29.216Z,6.50
2023-04-07T11:39:02.761Z,7.03
2023-04-07T11:42:07.623Z,9.23
2023-04-07T11:43:42.588Z,7.03
2023-04-07T11:45:19.894Z,6.70
2023-04-07T11:47:03.896Z,6.75
2023-04-07T11:48:37.570Z,6.28
2023-04-07T11:50:10.616Z,6.65
2023-04-07T11:51:44.844Z,6.38
2023-04-07T11:53:34.773Z,6.72
2023-04-07T11:55:07.369Z,6.55
2023-04-07T11:56:45.128Z,6.85
2023-04-07T11:58:17.300Z,7.25
2023-04-07T11:59:50.258Z,7.45
2023-04-07T12:01:25.064Z,6.60
2023-04-07T12:02:58.294Z,6.55
2023-04-07T12:04:31.728Z,6.10
2023-04-07T12:07:37.070Z,6.35
2023-04-07T12:09:11.441Z,6.75
2023-04-07T12:10:43.866Z,8.32
2023-04-07T12:12:26.133Z,7.20
2023-04-07T12:13:58.536Z,7.60
2023-04-07T12:15:30.867Z,7.55
2023-04-07T12:17:04.425Z,7.07
2023-04-07T12:18:37.045Z,6.38
2023-04-07T12:20:09.622Z,7.03
2023-04-07T12:21:41.804Z,7.80
2023-04-07T12:23:13.902Z,6.53
2023-04-07T12:24:46.568Z,7.22
2023-04-07T12:26:19.368Z,7.18
2023-04-07T12:27:52.736Z,7.70
2023-04-07T12:29:24.994Z,7.97
2023-04-07T12:30:57.210Z,7.13
2023-04-07T12:32:29.515Z,6.10
2023-04-07T12:34:02.061Z,6.97
2023-04-07T12:35:34.254Z,7.47
2023-04-07T12:37:06.584Z,8.02
2023-04-07T12:38:38.658Z,7.32
2023-04-07T12:40:12.155Z,7.18
2023-04-07T12:41:46.254Z,7.10
2023-04-07T12:43:18.333Z,7.82
2023-04-07T12:44:50.517Z,9.52
2023-04-07T12:46:22.810Z,9.90
2023-04-07T12:47:55.039Z,7.22
2023-04-07T12:49:27.654Z,6.15
2023-04-07T12:50:59.854Z,8.00
2023-04-07T12:52:32.463Z,6.50
2023-04-07T12:54:04.818Z,8.00
2023-04-07T12:55:37.805Z,7.28
2023-04-07T12:57:10.581Z,7.30
2023-04-07T12:58:43.434Z,7.20
2023-04-07T13:00:16.057Z,7.40
2023-04-07T13:01:50.629Z,8.13
2023-04-07T13:03:23.736Z,7.60
2023-04-07T13:04:56.256Z,7.70
2023-04-07T13:06:28.426Z,7.55
2023-04-07T13:08:00.632Z,10.90
2023-04-07T13:09:33.694Z,9.68
2023-04-07T13:11:05.957Z,9.85
2023-04-07T13:12:38.088Z,9.02
2023-04-07T13:14:10.190Z,7.95
2023-04-07T13:15:42.262Z,8.57
2023-04-07T13:17:14.523Z,7.57
2023-04-07T13:18:46.673Z,10.30
2023-04-07T13:20:20.796Z,10.95
2023-04-07T13:21:53.370Z,11.27
2023-04-07T13:23:28.355Z,9.30
2023-04-07T13:25:00.873Z,9.70
2023-04-07T13:26:34.148Z,9.30
2023-04-07T13:28:06.982Z,9.40
2023-04-07T13:29:39.117Z,8.93
2023-04-07T13:31:13.385Z,9.23
2023-04-07T13:32:45.520Z,8.02
2023-04-07T13:34:17.681Z,9.90
2023-04-07T13:35:49.951Z,9.68
2023-04-07T13:37:22.164Z,10.82
2023-04-07T13:38:54.328Z,9.73
2023-04-07T13:40:26.440Z,9.70
2023-04-07T13:41:58.738Z,9.40
2023-04-07T13:43:30.837Z,9.20
2023-04-07T13:45:03.009Z,10.15
2023-04-07T13:46:35.495Z,10.63
2023-04-07T13:48:07.642Z,9.13
2023-04-07T13:49:39.732Z,9.20
2023-04-07T13:51:12.032Z,8.95
2023-04-07T13:52:44.251Z,8.57
2023-04-07T13:54:18.629Z,8.65
2023-04-07T13:55:50.913Z,9.02
2023-04-07T13:57:23.179Z,8.57
2023-04-07T13:58:55.580Z,9.25
2023-04-07T14:00:27.644Z,11.27
2023-04-07T14:02:00.078Z,9.70
2023-04-07T14:03:32.432Z,10.70
2023-04-07T14:05:04.961Z,9.27
2023-04-07T14:06:38.322Z,11.57
2023-04-07T14:08:10.730Z,8.95
2023-04-07T14:09:43.281Z,10.25
2023-04-07T14:11:25.267Z,12.03
2023-04-07T14:12:57.575Z,9.50
2023-04-07T14:14:29.778Z,9.55
2023-04-07T14:16:02.047Z,8.95
2023-04-07T14:17:34.275Z,9.85
2023-04-07T14:19:07.378Z,9.65
2023-04-07T14:20:39.465Z,9.80
2023-04-07T14:22:11.607Z,9.73
2023-04-07T14:23:43.840Z,9.35
2023-04-07T14:25:18.955Z,10.15
2023-04-07T14:26:51.567Z,8.85
2023-04-07T14:28:23.917Z,9.40
2023-04-07T14:29:58.492Z,9.57
2023-04-07T14:31:30.754Z,9.32
2023-04-07T14:33:05.036Z,9.25
2023-04-07T14:34:37.578Z,9.73
2023-04-07T14:36:09.923Z,9.18
2023-04-07T14:37:42.185Z,9.82
2023-04-07T14:39:15.084Z,9.77
2023-04-07T14:40:47.765Z,9.02
2023-04-07T14:42:20.396Z,8.25
2023-04-07T14:43:56.649Z,9.27
2023-04-07T14:45:28.936Z,9.50
2023-04-07T14:47:01.279Z,8.95
2023-04-07T14:48:33.469Z,8.40
2023-04-07T14:50:05.910Z,9.52
2023-04-07T14:51:38.133Z,10.68
2023-04-07T14:53:10.340Z,10.00
2023-04-07T14:54:42.592Z,9.02
2023-04-07T14:56:14.775Z,9.18
2023-04-07T14:57:47.101Z,9.13
2023-04-07T14:59:19.215Z,9.35
2023-04-07T15:00:51.420Z,9.05
2023-04-07T15:02:23.750Z,8.80
2023-04-07T15:03:56.158Z,10.10
2023-04-07T15:05:30.176Z,8.80
2023-04-07T15:07:02.541Z,9.38
2023-04-07T15:08:34.840Z,8.60
2023-04-07T15:10:07.556Z,9.38
2023-04-07T15:11:39.723Z,9.52
2023-04-07T15:13:11.845Z,9.48
2023-04-07T15:14:51.021Z,8.85
2023-04-07T15:16:23.266Z,8.95
2023-04-07T15:17:55.468Z,9.60
2023-04-07T15:19:27.597Z,9.57
2023-04-07T15:20:59.850Z,9.20
2023-04-07T15:22:32.280Z,9.30
2023-04-07T15:24:04.539Z,8.55
2023-04-07T15:25:36.677Z,8.25
2023-04-07T15:27:09.720Z,9.45
2023-04-07T15:28:42.016Z,9.43
2023-04-07T15:30:14.162Z,9.88
2023-04-07T15:31:46.324Z,9.57
2023-04-07T15:33:18.937Z,10.55
2023-04-07T15:34:51.147Z,10.37
2023-04-07T15:36:23.236Z,8.95
2023-04-07T15:37:55.436Z,9.18
2023-04-07T15:39:27.488Z,8.70
2023-04-07T15:40:59.724Z,8.75
2023-04-07T15:42:34.005Z,9.18
2023-04-07T15:44:06.672Z,9.18
2023-04-07T15:45:45.249Z,8.40
2023-04-07T15:47:17.544Z,8.60
2023-04-07T15:48:49.833Z,8.50
2023-04-07T15:50:22.447Z,8.82
2023-04-07T15:51:54.793Z,8.38
2023-04-07T15:53:26.984Z,9.23
2023-04-07T15:56:37.205Z,9.63
2023-04-07T15:58:10.908Z,10.98
2023-04-07T15:59:43.246Z,17.15
2023-04-07T16:01:15.544Z,11.15
2023-04-07T16:02:47.943Z,9.35
2023-04-07T16:04:20.140Z,12.18
2023-04-07T16:05:52.361Z,8.80
2023-04-07T16:07:24.617Z,9.23
2023-04-07T16:08:56.910Z,8.98
2023-04-07T16:10:29.169Z,9.82
2023-04-07T16:12:01.359Z,12.82
2023-04-07T16:13:33.434Z,10.40
2023-04-07T16:15:11.763Z,10.13
2023-04-07T16:16:44.954Z,10.38
2023-04-07T16:18:17.333Z,9.27
2023-04-07T16:19:49.444Z,8.70
2023-04-07T16:21:21.717Z,8.38
2023-04-07T16:22:53.996Z,8.80
2023-04-07T16:26:11.550Z,8.35
2023-04-07T16:27:45.458Z,8.38
2023-04-07T16:29:18.490Z,8.75
2023-04-07T16:30:50.892Z,9.50
2023-04-07T16:32:23.288Z,8.88
2023-04-07T16:33:58.211Z,9.18
2023-04-07T16:35:32.243Z,8.93
2023-04-07T16:37:04.744Z,9.00
2023-04-07T16:38:36.976Z,9.77
2023-04-07T16:40:10.038Z,10.55
2023-04-07T16:41:42.227Z,9.48
2023-04-07T16:43:14.472Z,8.98
2023-04-07T16:44:46.678Z,11.63
2023-04-07T16:46:20.089Z,10.75
2023-04-07T16:49:24.520Z,12.75
2023-04-07T16:50:56.790Z,9.65
2023-04-07T16:52:28.974Z,8.82
2023-04-07T16:54:01.433Z,8.93
2023-04-07T16:55:36.762Z,9.80
2023-04-07T16:57:09.100Z,9.27
2023-04-07T16:58:41.197Z,9.40
2023-04-07T17:00:13.954Z,9.13
2023-04-07T17:01:46.682Z,9.73
2023-04-07T17:03:19.288Z,9.38
2023-04-07T17:04:51.651Z,9.40
2023-04-07T17:06:23.973Z,9.05
2023-04-07T17:07:58.251Z,10.02
2023-04-07T17:11:17.960Z,12.63
2023-04-07T17:12:54.576Z,10.13
2023-04-07T17:14:26.877Z,9.98
2023-04-07T17:15:59.221Z,9.80
2023-04-07T17:17:31.509Z,9.90
2023-04-07T17:19:03.729Z,9.55
2023-04-07T17:20:35.975Z,9.77
2023-04-07T17:22:08.319Z,10.23
2023-04-07T17:23:40.564Z,8.98
2023-04-07T17:25:12.887Z,10.60
2023-04-07T17:26:47.234Z,9.43
2023-04-07T17:28:19.408Z,9.93
2023-04-07T17:29:51.526Z,9.93
2023-04-07T17:31:23.967Z,9.45
2023-04-07T17:32:56.517Z,9.53
2023-04-07T17:34:28.889Z,9.77
2023-04-07T17:36:04.076Z,9.82
2023-04-07T17:37:36.624Z,9.57
2023-04-07T17:39:08.935Z,9.73
2023-04-07T17:40:41.528Z,10.02
2023-04-07T17:42:13.934Z,10.48
2023-04-07T17:43:46.484Z,11.23
2023-04-07T17:45:19.335Z,12.40
2023-04-07T17:46:51.686Z,10.63
2023-04-07T17:48:23.979Z,10.70
2023-04-07T17:49:56.253Z,10.27
2023-04-07T17:51:29.233Z,10.30
2023-04-07T17:53:01.577Z,10.55
2023-04-07T17:54:34.462Z,10.57
2023-04-07T17:56:07.132Z,10.80
2023-04-07T17:57:39.532Z,11.68
2023-04-07T17:59:11.775Z,11.30
2023-04-07T18:00:43.969Z,11.18
2023-04-07T18:02:16.825Z,10.73
2023-04-07T18:03:50.272Z,10.63
2023-04-07T18:06:55.290Z,9.60
2023-04-07T18:08:27.790Z,10.45
2023-04-07T18:10:00.204Z,10.60
2023-04-07T18:11:33.151Z,9.88
2023-04-07T18:13:06.107Z,11.52
2023-04-07T18:14:38.447Z,10.73
2023-04-07T18:16:12.338Z,10.80
2023-04-07T18:17:44.569Z,11.73
2023-04-07T18:19:17.917Z,11.43
2023-04-07T18:20:50.276Z,12.38
2023-04-07T18:22:23.068Z,10.75
2023-04-07T18:23:55.282Z,11.40
2023-04-07T18:25:27.588Z,14.98
2023-04-07T18:26:59.909Z,12.77
2023-04-07T18:28:32.285Z,12.00
2023-04-07T18:30:04.793Z,11.07
2023-04-07T18:31:36.973Z,11.82
2023-04-07T18:33:09.621Z,11.32
2023-04-07T18:34:41.974Z,12.88
2023-04-07T18:36:14.936Z,11.85
2023-04-07T18:37:47.292Z,12.20
2023-04-07T18:39:19.969Z,11.60
2023-04-07T18:40:52.211Z,11.75
2023-04-07T18:42:24.403Z,11.82
2023-04-07T18:43:56.795Z,10.88
2023-04-07T18:45:29.208Z,11.35
2023-04-07T18:47:01.894Z,10.85
2023-04-07T18:48:34.095Z,11.07
2023-04-07T18:50:06.837Z,11.82
2023-04-07T18:51:39.415Z,10.90
2023-04-07T18:53:12.236Z,11.35
2023-04-07T18:54:45.016Z,10.73
2023-04-07T18:56:17.275Z,11.65
2023-04-07T18:57:49.655Z,11.73
2023-04-07T18:59:24.581Z,10.70
2023-04-07T19:00:57.070Z,11.48
2023-04-07T19:02:29.298Z,11.60
2023-04-07T19:04:02.053Z,12.10
2023-04-07T19:05:34.520Z,12.07
2023-04-07T19:07:06.733Z,11.88
2023-04-07T19:08:38.877Z,12.00
2023-04-07T19:10:11.137Z,12.30
2023-04-07T19:11:43.254Z,12.95
2023-04-07T19:13:16.601Z,12.48
2023-04-07T19:14:49.158Z,11.77
2023-04-07T19:16:22.165Z,12.17
2023-04-07T19:17:54.350Z,12.63
2023-04-07T19:19:26.924Z,12.18
2023-04-07T19:20:59.102Z,12.87
2023-04-07T19:22:31.434Z,13.43
2023-04-07T19:24:03.635Z,12.57
2023-04-07T19:25:35.875Z,12.13
2023-04-07T19:27:08.154Z,12.55
2023-04-07T19:30:13.597Z,12.95
2023-04-07T19:31:45.826Z,12.73
2023-04-07T19:33:18.066Z,12.43
2023-04-07T19:34:50.248Z,12.38
2023-04-07T19:36:22.409Z,14.65
2023-04-07T19:37:54.567Z,14.23
2023-04-07T19:39:26.820Z,13.18
2023-04-07T19:40:58.910Z,13.88
2023-04-07T19:42:31.430Z,13.88
2023-04-07T19:44:03.647Z,13.03
2023-04-07T19:45:35.905Z,13.10
2023-04-07T19:47:08.133Z,15.05
2023-04-07T19:48:40.481Z,15.23
2023-04-07T19:50:15.147Z,13.25
2023-04-07T19:51:48.364Z,13.25
2023-04-07T19:53:20.552Z,11.95
2023-04-07T19:54:52.969Z,11.85
2023-04-07T19:56:25.498Z,13.00
2023-04-07T19:57:57.576Z,11.93
2023-04-07T19:59:29.685Z,11.60
2023-04-07T20:01:03.083Z,12.90
2023-04-07T20:02:36.340Z,14.32
2023-04-07T20:04:08.677Z,13.40
2023-04-07T20:05:40.896Z,13.02
2023-04-07T20:07:13.019Z,13.50
2023-04-07T20:08:45.173Z,15.98
2023-04-07T20:10:17.347Z,25.23
2023-04-07T20:11:50.213Z,23.25
2023-04-07T20:13:23.591Z,24.30
2023-04-07T20:14:55.819Z,26.27
2023-04-07T20:16:28.075Z,17.88
2023-04-07T20:18:00.594Z,18.17
2023-04-07T20:19:32.723Z,20.23
2023-04-07T20:21:08.567Z,21.58
2023-04-07T20:22:40.891Z,24.33
2023-04-07T20:24:13.649Z,22.45
2023-04-07T20:25:45.986Z,21.98
2023-04-07T20:27:18.823Z,19.30
2023-04-07T20:28:51.364Z,18.35
2023-04-07T20:30:23.662Z,15.90
2023-04-07T20:31:56.085Z,16.15
2023-04-07T20:33:28.315Z,15.95
2023-04-07T20:35:00.878Z,16.88
2023-04-07T20:36:32.965Z,15.40
2023-04-07T20:38:05.070Z,18.92
2023-04-07T20:39:37.487Z,19.08
2023-04-07T20:41:18.571Z,17.30
2023-04-07T20:42:50.746Z,17.17
2023-04-07T20:44:23.121Z,19.80
2023-04-07T20:45:55.582Z,18.50
2023-04-07T20:47:27.776Z,16.80
2023-04-07T20:48:59.910Z,16.75
2023-04-07T20:50:32.158Z,18.73
2023-04-07T20:52:04.410Z,18.70
2023-04-07T20:53:36.847Z,18.75
2023-04-07T20:55:09.812Z,19.52
2023-04-07T20:56:43.404Z,19.38